RA601 URML-URWA
Flight info
| Callsign | RA601 |
|---|---|
| Flight time | N/A |
| Altitude | 6000 |
| Route | EMTEZ/K0302F070 DCT AMKOL B945 UP UP5K |
| Aircraft | DA62/L-SDFGRY/C |
Departure
| Time | N/A |
|---|---|
| Airport | Makhachkala Uytash International Airport (URML) |
Arrival
| Time | 2026-04-29 16:03 |
|---|---|
| Airport | Astrakhan Narimanovo Boris M. Kustodiev International Airport (URWA) |
| Time | Latitude | Longitude | Altitude | Speed | Heading |
|---|---|---|---|---|---|
| 2026-04-29 15:36 | 46.26370 | 47.92469 | 1325 ft | 151 kts | 239° |
| 2026-04-29 15:37 | 46.25841 | 47.91146 | 1401 ft | 153 kts | 240° |
| 2026-04-29 15:37 | 46.25319 | 47.89800 | 1479 ft | 154 kts | 240° |
| 2026-04-29 15:37 | 46.24800 | 47.88447 | 1557 ft | 154 kts | 241° |
| 2026-04-29 15:37 | 46.24266 | 47.87054 | 1507 ft | 161 kts | 241° |
| 2026-04-29 15:38 | 46.23724 | 47.85641 | 1535 ft | 161 kts | 241° |
| 2026-04-29 15:38 | 46.23192 | 47.84255 | 1525 ft | 149 kts | 241° |
| 2026-04-29 15:38 | 46.22714 | 47.83017 | 1517 ft | 135 kts | 240° |
| 2026-04-29 15:38 | 46.22274 | 47.81876 | 1514 ft | 126 kts | 240° |
| 2026-04-29 15:39 | 46.21858 | 47.80795 | 1487 ft | 120 kts | 241° |
| 2026-04-29 15:39 | 46.21530 | 47.79714 | 1487 ft | 116 kts | 256° |
| 2026-04-29 15:39 | 46.21312 | 47.78597 | 1490 ft | 116 kts | 255° |
| 2026-04-29 15:39 | 46.21086 | 47.77466 | 1486 ft | 119 kts | 255° |
| 2026-04-29 15:40 | 46.20867 | 47.76186 | 1506 ft | 145 kts | 257° |
| 2026-04-29 15:40 | 46.20630 | 47.74668 | 1503 ft | 163 kts | 258° |
| 2026-04-29 15:40 | 46.20371 | 47.73012 | 1502 ft | 174 kts | 258° |
| 2026-04-29 15:40 | 46.20097 | 47.71288 | 1496 ft | 179 kts | 258° |
| 2026-04-29 15:41 | 46.19820 | 47.69528 | 1496 ft | 181 kts | 257° |
| 2026-04-29 15:41 | 46.19469 | 47.67773 | 1500 ft | 183 kts | 253° |
| 2026-04-29 15:41 | 46.19037 | 47.66045 | 1500 ft | 184 kts | 248° |
| 2026-04-29 15:41 | 46.18535 | 47.64345 | 1499 ft | 185 kts | 246° |
| 2026-04-29 15:42 | 46.18032 | 47.62661 | 1498 ft | 185 kts | 246° |
| 2026-04-29 15:42 | 46.17526 | 47.60949 | 1505 ft | 186 kts | 247° |
| 2026-04-29 15:42 | 46.17018 | 47.59234 | 1502 ft | 187 kts | 247° |
| 2026-04-29 15:42 | 46.16507 | 47.57516 | 1498 ft | 186 kts | 246° |
| 2026-04-29 15:43 | 46.15997 | 47.55807 | 1496 ft | 185 kts | 247° |
| 2026-04-29 15:43 | 46.15490 | 47.54099 | 1496 ft | 186 kts | 247° |
| 2026-04-29 15:43 | 46.15046 | 47.52356 | 1494 ft | 186 kts | 257° |
| 2026-04-29 15:43 | 46.14970 | 47.50502 | 1500 ft | 186 kts | 270° |
| 2026-04-29 15:44 | 46.14973 | 47.48637 | 1494 ft | 186 kts | 271° |
| 2026-04-29 15:44 | 46.15228 | 47.46821 | 1490 ft | 185 kts | 290° |
| 2026-04-29 15:44 | 46.15658 | 47.45071 | 1490 ft | 185 kts | 291° |
| 2026-04-29 15:44 | 46.16130 | 47.43348 | 1483 ft | 184 kts | 302° |
| 2026-04-29 15:45 | 46.17105 | 47.42249 | 1481 ft | 180 kts | 344° |
| 2026-04-29 15:45 | 46.18314 | 47.42368 | 1482 ft | 176 kts | 26° |
| 2026-04-29 15:45 | 46.19171 | 47.43581 | 1482 ft | 175 kts | 60° |
| 2026-04-29 15:45 | 46.19604 | 47.45207 | 1486 ft | 174 kts | 69° |
| 2026-04-29 15:46 | 46.20133 | 47.46753 | 1486 ft | 174 kts | 60° |
| 2026-04-29 15:46 | 46.20760 | 47.48255 | 1484 ft | 175 kts | 59° |
| 2026-04-29 15:46 | 46.21398 | 47.49743 | 1484 ft | 174 kts | 58° |
| 2026-04-29 15:46 | 46.22032 | 47.51231 | 1484 ft | 174 kts | 59° |
| 2026-04-29 15:47 | 46.22665 | 47.52726 | 1489 ft | 175 kts | 58° |
| 2026-04-29 15:47 | 46.23296 | 47.54220 | 1492 ft | 174 kts | 58° |
| 2026-04-29 15:47 | 46.23929 | 47.55717 | 1490 ft | 175 kts | 58° |
| 2026-04-29 15:47 | 46.24563 | 47.57219 | 1491 ft | 175 kts | 59° |
| 2026-04-29 15:48 | 46.25197 | 47.58719 | 1489 ft | 175 kts | 59° |
| 2026-04-29 15:48 | 46.25830 | 47.60220 | 1492 ft | 175 kts | 58° |
| 2026-04-29 15:48 | 46.26464 | 47.61722 | 1493 ft | 175 kts | 59° |
| 2026-04-29 15:48 | 46.27095 | 47.63220 | 1489 ft | 174 kts | 58° |
| 2026-04-29 15:49 | 46.27726 | 47.64717 | 1489 ft | 174 kts | 58° |
| 2026-04-29 15:49 | 46.28355 | 47.66210 | 1488 ft | 174 kts | 59° |
| 2026-04-29 15:49 | 46.28984 | 47.67704 | 1490 ft | 174 kts | 59° |
| 2026-04-29 15:49 | 46.29614 | 47.69202 | 1490 ft | 174 kts | 59° |
| 2026-04-29 15:50 | 46.30230 | 47.70687 | 1489 ft | 175 kts | 61° |
| 2026-04-29 15:50 | 46.30572 | 47.72364 | 1489 ft | 175 kts | 84° |
| 2026-04-29 15:50 | 46.30492 | 47.74127 | 1488 ft | 176 kts | 96° |
| 2026-04-29 15:50 | 46.30344 | 47.75885 | 1489 ft | 176 kts | 95° |
| 2026-04-29 15:51 | 46.30203 | 47.77644 | 1492 ft | 175 kts | 96° |
| 2026-04-29 15:51 | 46.30062 | 47.79392 | 1491 ft | 175 kts | 95° |
| 2026-04-29 15:51 | 46.29921 | 47.81144 | 1490 ft | 176 kts | 96° |
| 2026-04-29 15:51 | 46.29778 | 47.82898 | 1518 ft | 175 kts | 96° |
| 2026-04-29 15:52 | 46.29635 | 47.84648 | 1519 ft | 175 kts | 96° |
| 2026-04-29 15:52 | 46.29492 | 47.86401 | 1521 ft | 176 kts | 96° |
| 2026-04-29 15:52 | 46.29349 | 47.88156 | 1522 ft | 176 kts | 96° |
| 2026-04-29 15:52 | 46.29208 | 47.89923 | 1357 ft | 179 kts | 96° |
| 2026-04-29 15:53 | 46.29069 | 47.91752 | 1089 ft | 190 kts | 97° |
| 2026-04-29 15:53 | 46.28900 | 47.93635 | 829 ft | 178 kts | 95° |
| 2026-04-29 15:53 | 46.28774 | 47.95201 | 468 ft | 139 kts | 98° |
| 2026-04-29 15:53 | 46.28676 | 47.96439 | 259 ft | 120 kts | 95° |
| 2026-04-29 15:54 | 46.28584 | 47.97517 | 174 ft | 97 kts | 95° |
| 2026-04-29 15:54 | 46.28513 | 47.98431 | 36 ft | 94 kts | 95° |
| 2026-04-29 15:54 | 46.28432 | 47.99398 | -67 ft | 98 kts | 95° |
| 2026-04-29 15:54 | 46.28365 | 48.00187 | -70 ft | 56 kts | 97° |
| 2026-04-29 15:55 | 46.28328 | 48.00671 | -77 ft | 53 kts | 94° |
| 2026-04-29 15:55 | 46.28264 | 48.01408 | -64 ft | 89 kts | 96° |
| 2026-04-29 15:55 | 46.28213 | 48.02338 | 90 ft | 97 kts | 78° |
| 2026-04-29 15:55 | 46.28731 | 48.02881 | 270 ft | 114 kts | 350° |
| 2026-04-29 15:56 | 46.29296 | 48.02025 | 434 ft | 132 kts | 289° |
| 2026-04-29 15:56 | 46.29479 | 48.00610 | 454 ft | 154 kts | 276° |
| 2026-04-29 15:56 | 46.29564 | 47.99025 | 542 ft | 163 kts | 275° |
| 2026-04-29 15:56 | 46.29673 | 47.97406 | 774 ft | 159 kts | 277° |
| 2026-04-29 15:57 | 46.29825 | 47.95829 | 994 ft | 160 kts | 278° |
| 2026-04-29 15:57 | 46.29849 | 47.94207 | 1115 ft | 165 kts | 260° |
| 2026-04-29 15:57 | 46.29211 | 47.93003 | 1133 ft | 156 kts | 198° |
| 2026-04-29 15:57 | 46.28464 | 47.93615 | 1160 ft | 127 kts | 97° |
| 2026-04-29 15:58 | 46.28586 | 47.94768 | 778 ft | 97 kts | 78° |
| 2026-04-29 15:58 | 46.28685 | 47.95663 | 411 ft | 87 kts | 84° |
| 2026-04-29 15:58 | 46.28678 | 47.96485 | 192 ft | 78 kts | 95° |
| 2026-04-29 15:58 | 46.28585 | 47.97234 | 121 ft | 77 kts | 95° |
| 2026-04-29 15:59 | 46.28538 | 47.98029 | 127 ft | 80 kts | 92° |
| 2026-04-29 15:59 | 46.28480 | 47.98766 | -7 ft | 69 kts | 95° |
| 2026-04-29 15:59 | 46.28441 | 47.99552 | 62 ft | 88 kts | 92° |
| 2026-04-29 15:59 | 46.28396 | 48.00438 | 245 ft | 91 kts | 94° |
| 2026-04-29 16:00 | 46.28353 | 48.01438 | 493 ft | 98 kts | 79° |
| 2026-04-29 16:00 | 46.28849 | 48.01333 | 584 ft | 123 kts | 267° |
| 2026-04-29 16:00 | 46.28853 | 48.00031 | 556 ft | 144 kts | 271° |
| 2026-04-29 16:00 | 46.29043 | 47.98613 | 772 ft | 139 kts | 291° |
| 2026-04-29 16:01 | 46.29419 | 47.97274 | 962 ft | 145 kts | 295° |
| 2026-04-29 16:01 | 46.29470 | 47.95804 | 1066 ft | 155 kts | 244° |
| 2026-04-29 16:01 | 46.28698 | 47.95047 | 1057 ft | 122 kts | 157° |
| 2026-04-29 16:01 | 46.28464 | 47.95982 | 618 ft | 108 kts | 80° |
| 2026-04-29 16:02 | 46.28580 | 47.96970 | 296 ft | 91 kts | 83° |
| 2026-04-29 16:02 | 46.28559 | 47.97843 | 91 ft | 85 kts | 95° |
| 2026-04-29 16:02 | 46.28482 | 47.98717 | -9 ft | 86 kts | 94° |
| 2026-04-29 16:02 | 46.28414 | 47.99532 | -80 ft | 65 kts | 96° |
| 2026-04-29 16:03 | 46.28386 | 47.99949 | -77 ft | 33 kts | 97° |
| 2026-04-29 16:03 | 46.28436 | 48.00056 | -75 ft | 10 kts | 4° |
| 2026-04-29 16:03 | 46.28490 | 48.00066 | -75 ft | 4 kts | 6° |
| 2026-04-29 16:03 | 46.28521 | 48.00071 | -71 ft | 5 kts | 7° |
| 2026-04-29 16:04 | 46.28570 | 48.00078 | -73 ft | 12 kts | 6° |
| 2026-04-29 16:04 | 46.28615 | 47.99988 | -77 ft | 17 kts | 274° |
| 2026-04-29 16:04 | 46.28627 | 47.99859 | -73 ft | 10 kts | 277° |
| 2026-04-29 16:04 | 46.28610 | 47.99774 | -77 ft | 10 kts | 198° |
| 2026-04-29 16:05 | 46.28563 | 47.99788 | -73 ft | 0 kts | 128° |
| 2026-04-29 16:05 | 46.28550 | 47.99864 | -75 ft | 11 kts | 95° |
| 2026-04-29 16:05 | 46.28581 | 47.99931 | -77 ft | 9 kts | 4° |
| 2026-04-29 16:05 | 46.28585 | 47.99932 | -72 ft | 0 kts | 2° |